createdAt,value
2022-11-30T00:01:52.724Z,17.17
2022-11-30T00:04:20.659Z,18.30
2022-11-30T00:06:48.514Z,18.57
2022-11-30T00:09:16.365Z,16.57
2022-11-30T00:11:44.235Z,17.60
2022-11-30T00:14:12.117Z,20.00
2022-11-30T00:16:41.439Z,18.53
2022-11-30T00:19:09.309Z,19.57
2022-11-30T00:21:37.159Z,20.63
2022-11-30T00:24:06.675Z,20.57
2022-11-30T00:26:34.722Z,20.10
2022-11-30T00:29:02.601Z,21.67
2022-11-30T00:31:30.762Z,21.70
2022-11-30T00:34:00.120Z,23.97
2022-11-30T00:36:28.073Z,22.80
2022-11-30T00:38:56.724Z,24.73
2022-11-30T00:41:24.640Z,25.93
2022-11-30T00:43:52.489Z,24.83
2022-11-30T00:46:20.423Z,26.73
2022-11-30T00:48:48.390Z,24.50
2022-11-30T00:51:18.529Z,25.97
2022-11-30T00:53:47.633Z,25.17
2022-11-30T00:56:15.666Z,24.67
2022-11-30T00:58:43.595Z,25.83
2022-11-30T01:01:11.541Z,25.80
2022-11-30T01:03:39.502Z,25.33
2022-11-30T01:06:09.381Z,24.87
2022-11-30T01:08:38.914Z,24.40
2022-11-30T01:11:09.785Z,24.97
2022-11-30T01:13:37.672Z,26.43
2022-11-30T01:16:11.267Z,24.60
2022-11-30T01:18:39.256Z,25.40
2022-11-30T01:21:08.388Z,25.23
2022-11-30T01:23:38.005Z,24.97
2022-11-30T01:26:05.959Z,22.40
2022-11-30T01:28:34.463Z,24.87
2022-11-30T01:31:05.114Z,26.13
2022-11-30T01:33:33.693Z,25.40
2022-11-30T01:36:03.026Z,25.10
2022-11-30T01:38:35.118Z,25.80
2022-11-30T01:41:05.808Z,24.90
2022-11-30T01:43:43.117Z,25.37
2022-11-30T01:46:36.799Z,24.80
2022-11-30T01:49:18.038Z,25.40
2022-11-30T01:51:50.135Z,27.03
2022-11-30T01:54:23.719Z,25.90
2022-11-30T01:56:57.349Z,24.70
2022-11-30T01:59:27.043Z,24.77
2022-11-30T02:01:55.870Z,25.97
2022-11-30T02:04:29.202Z,25.60
2022-11-30T02:06:57.794Z,25.83
2022-11-30T02:09:28.331Z,25.13
2022-11-30T02:11:58.197Z,27.03
2022-11-30T02:14:34.991Z,26.30
2022-11-30T02:17:12.295Z,27.50
2022-11-30T02:20:28.998Z,24.77
2022-11-30T02:23:42.992Z,23.77
2022-11-30T02:26:28.591Z,25.93
2022-11-30T02:29:07.017Z,23.03
2022-11-30T02:31:43.190Z,24.90
2022-11-30T02:34:14.922Z,24.30
2022-11-30T02:36:43.659Z,24.40
2022-11-30T02:39:12.559Z,25.23
2022-11-30T02:41:42.258Z,23.47
2022-11-30T02:44:12.847Z,24.30
2022-11-30T02:46:58.557Z,24.07
2022-11-30T02:49:35.214Z,23.80
2022-11-30T02:52:05.104Z,22.77
2022-11-30T02:54:33.984Z,23.23
2022-11-30T02:57:01.839Z,22.90
2022-11-30T02:59:31.285Z,22.67
2022-11-30T03:01:59.196Z,21.63
2022-11-30T03:04:27.064Z,22.13
2022-11-30T03:06:54.921Z,22.87
2022-11-30T03:09:22.766Z,21.83
2022-11-30T03:11:50.645Z,20.00
2022-11-30T03:14:18.502Z,20.53
2022-11-30T03:16:48.189Z,20.97
2022-11-30T03:19:16.092Z,21.10
2022-11-30T03:21:43.967Z,20.80
2022-11-30T03:24:11.945Z,21.87
2022-11-30T03:26:39.825Z,21.67
2022-11-30T03:29:07.792Z,22.13
2022-11-30T03:31:35.692Z,20.37
2022-11-30T03:34:05.080Z,20.60
2022-11-30T03:36:33.068Z,20.60
2022-11-30T03:39:01.154Z,20.07
2022-11-30T03:41:29.172Z,19.97
2022-11-30T03:43:57.472Z,19.60
2022-11-30T03:46:27.101Z,19.47
2022-11-30T03:48:55.428Z,20.50
2022-11-30T03:51:24.676Z,22.60
2022-11-30T03:53:52.535Z,21.00
2022-11-30T03:56:21.731Z,20.87
2022-11-30T03:58:49.616Z,20.77
2022-11-30T04:01:19.336Z,20.97
2022-11-30T04:03:47.315Z,21.80
2022-11-30T04:06:15.969Z,21.10
2022-11-30T04:08:45.605Z,21.57
2022-11-30T04:11:14.075Z,21.57
2022-11-30T04:13:42.640Z,23.40
2022-11-30T04:16:10.901Z,23.57
2022-11-30T04:18:39.915Z,23.43
2022-11-30T04:21:08.961Z,22.67
2022-11-30T04:23:39.158Z,24.33
2022-11-30T04:26:11.748Z,22.47
2022-11-30T04:28:39.745Z,25.13
2022-11-30T04:31:07.821Z,22.77
2022-11-30T04:33:38.163Z,24.17
2022-11-30T04:36:08.341Z,24.83
2022-11-30T04:38:37.946Z,24.27
2022-11-30T04:41:09.800Z,24.13
2022-11-30T04:43:37.889Z,22.47
2022-11-30T04:46:06.046Z,24.83
2022-11-30T04:48:34.397Z,24.63
2022-11-30T04:51:03.432Z,24.80
2022-11-30T04:53:31.323Z,23.73
2022-11-30T04:55:59.164Z,24.73
2022-11-30T04:58:28.365Z,25.43
2022-11-30T05:00:56.241Z,24.37
2022-11-30T05:03:24.095Z,24.07
2022-11-30T05:05:51.948Z,23.70
2022-11-30T05:08:20.357Z,25.57
2022-11-30T05:10:53.323Z,25.50
2022-11-30T05:13:23.870Z,24.73
2022-11-30T05:15:53.853Z,24.67
2022-11-30T05:18:27.289Z,23.20
2022-11-30T05:20:55.264Z,22.80
2022-11-30T05:23:23.183Z,23.53
2022-11-30T05:25:51.067Z,23.97
2022-11-30T05:28:19.010Z,22.67
2022-11-30T05:30:47.209Z,23.93
2022-11-30T05:33:16.394Z,22.47
2022-11-30T05:35:44.545Z,22.90
2022-11-30T05:38:12.413Z,22.53
2022-11-30T05:40:40.302Z,21.50
2022-11-30T05:43:08.223Z,21.67
2022-11-30T05:45:36.154Z,22.00
2022-11-30T05:48:04.279Z,23.77
2022-11-30T05:50:33.961Z,22.63
2022-11-30T05:53:01.956Z,22.50
2022-11-30T05:55:32.321Z,24.60
2022-11-30T05:58:00.405Z,25.10
2022-11-30T06:00:28.391Z,26.50
2022-11-30T06:02:57.786Z,27.43
2022-11-30T06:05:26.141Z,25.10
2022-11-30T06:07:55.797Z,27.93
2022-11-30T06:10:25.330Z,27.97
2022-11-30T06:12:53.304Z,29.63
2022-11-30T06:15:21.214Z,28.07
2022-11-30T06:17:49.184Z,28.47
2022-11-30T06:20:17.443Z,29.73
2022-11-30T06:22:47.315Z,29.73
2022-11-30T06:25:16.840Z,29.10
2022-11-30T06:27:45.020Z,29.60
2022-11-30T06:30:14.138Z,28.20
2022-11-30T06:32:45.857Z,30.83
2022-11-30T06:35:14.115Z,27.90
2022-11-30T06:37:42.332Z,29.47
2022-11-30T06:40:12.063Z,29.10
2022-11-30T06:42:41.608Z,28.20
2022-11-30T06:45:10.852Z,27.87
2022-11-30T06:47:38.751Z,26.63
2022-11-30T06:50:08.324Z,24.83
2022-11-30T06:52:36.178Z,24.90
2022-11-30T06:55:04.491Z,23.87
2022-11-30T06:57:32.427Z,22.97
2022-11-30T07:00:01.695Z,22.97
2022-11-30T07:02:29.577Z,23.80
2022-11-30T07:04:57.492Z,22.07
2022-11-30T07:07:25.451Z,21.43
2022-11-30T07:09:53.361Z,22.43
2022-11-30T07:12:21.361Z,22.03
2022-11-30T07:14:52.341Z,20.73
2022-11-30T07:17:21.982Z,20.90
2022-11-30T07:19:50.110Z,21.73
2022-11-30T07:22:17.989Z,21.20
2022-11-30T07:25:03.901Z,20.63
2022-11-30T07:27:31.812Z,19.97
2022-11-30T07:29:59.724Z,19.37
2022-11-30T07:32:28.945Z,19.37
2022-11-30T07:34:56.883Z,19.27
2022-11-30T07:37:24.812Z,19.30
2022-11-30T07:39:52.651Z,20.57
2022-11-30T07:42:20.553Z,19.67
2022-11-30T07:44:51.492Z,19.90
2022-11-30T07:47:23.236Z,18.77
2022-11-30T07:49:52.490Z,18.20
2022-11-30T07:52:20.372Z,18.03
2022-11-30T07:54:48.523Z,18.33
2022-11-30T07:57:16.537Z,16.93
2022-11-30T07:59:44.653Z,16.73
2022-11-30T08:02:13.191Z,18.00
2022-11-30T08:04:41.199Z,17.00
2022-11-30T08:07:10.539Z,16.93
2022-11-30T08:09:38.387Z,17.27
2022-11-30T08:12:06.833Z,18.57
2022-11-30T08:14:45.573Z,16.67
2022-11-30T08:17:22.700Z,16.10
2022-11-30T08:19:50.536Z,16.93
2022-11-30T08:22:19.750Z,17.10
2022-11-30T08:24:47.874Z,17.67
2022-11-30T08:27:15.970Z,16.27
2022-11-30T08:29:43.809Z,16.57
2022-11-30T08:32:11.711Z,15.57
2022-11-30T08:34:39.648Z,16.63
2022-11-30T08:37:07.537Z,15.57
2022-11-30T08:39:36.796Z,16.43
2022-11-30T08:42:05.115Z,18.00
2022-11-30T08:44:33.062Z,17.10
2022-11-30T08:47:01.012Z,16.67
2022-11-30T08:49:28.993Z,17.77
2022-11-30T08:54:48.254Z,18.10
2022-11-30T08:57:17.815Z,18.13
2022-11-30T08:59:45.731Z,18.20
2022-11-30T09:02:17.246Z,19.80
2022-11-30T09:04:45.327Z,18.40
2022-11-30T09:07:13.181Z,18.33
2022-11-30T09:09:41.119Z,18.43
2022-11-30T09:12:10.453Z,17.80
2022-11-30T09:14:38.433Z,18.20
2022-11-30T09:17:09.102Z,19.43
2022-11-30T09:19:37.057Z,18.87
2022-11-30T09:22:05.050Z,18.57
2022-11-30T09:24:33.012Z,18.53
2022-11-30T09:27:00.868Z,19.07
2022-11-30T09:29:30.161Z,19.20
2022-11-30T09:31:58.139Z,19.83
2022-11-30T09:34:25.999Z,18.63
2022-11-30T09:36:54.635Z,19.13
2022-11-30T09:39:24.914Z,18.70
2022-11-30T09:42:18.226Z,19.03
2022-11-30T09:44:56.731Z,18.37
2022-11-30T09:47:42.301Z,19.20
2022-11-30T09:50:15.497Z,19.13
2022-11-30T09:52:47.317Z,19.13
2022-11-30T09:55:23.490Z,18.90
2022-11-30T09:57:54.494Z,20.00
2022-11-30T10:00:25.822Z,22.07
2022-11-30T10:02:56.593Z,20.67
2022-11-30T10:05:27.796Z,22.30
2022-11-30T10:08:20.470Z,21.57
2022-11-30T10:10:56.581Z,23.47
2022-11-30T10:13:43.690Z,23.40
2022-11-30T10:16:28.456Z,22.27
2022-11-30T10:19:01.874Z,24.07
2022-11-30T10:21:48.729Z,24.43
2022-11-30T10:24:32.913Z,23.60
2022-11-30T10:27:09.729Z,23.57
2022-11-30T10:29:41.440Z,23.47
2022-11-30T10:32:15.159Z,24.60
2022-11-30T10:34:45.942Z,23.57
2022-11-30T10:37:18.499Z,23.67
2022-11-30T10:39:53.943Z,22.80
2022-11-30T10:42:26.267Z,23.23
2022-11-30T10:45:01.384Z,23.73
2022-11-30T10:47:36.984Z,25.13
2022-11-30T10:50:05.939Z,25.17
2022-11-30T10:52:42.694Z,24.90
2022-11-30T10:55:16.065Z,24.83
2022-11-30T10:57:45.015Z,27.33
2022-11-30T11:00:16.574Z,26.07
2022-11-30T11:02:47.833Z,25.07
2022-11-30T11:05:20.935Z,27.90
2022-11-30T11:07:59.810Z,26.90
2022-11-30T11:10:35.504Z,27.20
2022-11-30T11:13:05.031Z,26.20
2022-11-30T11:15:34.580Z,27.37
2022-11-30T11:18:27.791Z,27.50
2022-11-30T11:21:06.135Z,25.83
2022-11-30T11:23:38.169Z,25.90
2022-11-30T11:26:07.872Z,26.77
2022-11-30T11:28:36.870Z,27.83
2022-11-30T11:31:18.989Z,27.47
2022-11-30T11:33:54.717Z,26.97
2022-11-30T11:36:33.209Z,28.50
2022-11-30T11:39:02.749Z,27.90
2022-11-30T11:41:33.896Z,27.30
2022-11-30T11:44:04.680Z,29.27
2022-11-30T11:46:34.271Z,29.03
2022-11-30T11:49:05.948Z,27.20
2022-11-30T11:51:35.804Z,28.47
2022-11-30T11:54:14.291Z,27.80
2022-11-30T11:56:42.801Z,29.87
2022-11-30T11:59:16.559Z,29.17
2022-11-30T12:01:53.158Z,28.57
2022-11-30T12:04:38.769Z,28.63
2022-11-30T12:07:18.155Z,29.87
2022-11-30T12:09:57.238Z,29.00
2022-11-30T12:12:25.270Z,30.20
2022-11-30T12:14:53.780Z,29.73
2022-11-30T12:17:34.791Z,29.40
2022-11-30T12:20:14.214Z,31.00
2022-11-30T12:22:53.533Z,29.37
2022-11-30T12:25:27.600Z,29.13
2022-11-30T12:28:07.469Z,30.30
2022-11-30T12:30:44.805Z,28.63
2022-11-30T12:33:17.355Z,30.73
2022-11-30T12:35:57.702Z,30.40
2022-11-30T12:38:36.453Z,30.77
2022-11-30T12:41:23.981Z,31.50
2022-11-30T12:44:00.514Z,31.07
2022-11-30T12:46:35.537Z,29.37
2022-11-30T12:49:18.611Z,31.83
2022-11-30T12:51:54.683Z,29.47
2022-11-30T12:54:31.984Z,30.63
2022-11-30T12:57:13.758Z,31.03
2022-11-30T12:59:47.677Z,29.07
2022-11-30T13:02:41.734Z,28.53
2022-11-30T13:05:15.680Z,29.57
2022-11-30T13:07:49.157Z,29.60
2022-11-30T13:10:26.546Z,29.90
2022-11-30T13:12:57.043Z,28.57
2022-11-30T13:15:28.097Z,29.27
2022-11-30T13:17:57.063Z,27.60
2022-11-30T13:20:27.918Z,28.87
2022-11-30T13:23:02.332Z,28.10
2022-11-30T13:28:33.480Z,27.70
2022-11-30T13:31:07.652Z,29.37
2022-11-30T13:33:39.779Z,29.03
2022-11-30T13:36:22.571Z,30.17
2022-11-30T13:39:10.734Z,27.93
2022-11-30T13:41:39.223Z,27.87
2022-11-30T13:44:21.812Z,28.30
2022-11-30T13:46:51.780Z,28.10
2022-11-30T13:49:23.462Z,26.33
2022-11-30T13:52:20.080Z,28.10
2022-11-30T13:54:45.726Z,26.90
2022-11-30T13:57:32.162Z,27.60
2022-11-30T14:00:01.459Z,25.73
2022-11-30T14:03:14.471Z,24.97
2022-11-30T14:05:44.149Z,26.43
2022-11-30T14:08:18.798Z,26.77
2022-11-30T14:10:49.671Z,27.60
2022-11-30T14:13:31.921Z,26.57
2022-11-30T14:16:03.459Z,26.57
2022-11-30T14:18:42.237Z,26.73
2022-11-30T14:21:25.364Z,27.40
2022-11-30T14:23:59.702Z,26.10
2022-11-30T14:26:35.853Z,25.37
2022-11-30T14:29:10.842Z,25.53
2022-11-30T14:31:43.127Z,26.03
2022-11-30T14:34:18.737Z,25.03
2022-11-30T14:36:54.001Z,25.20
2022-11-30T14:39:27.540Z,23.07
2022-11-30T14:41:56.746Z,23.90
2022-11-30T14:44:24.576Z,23.53
2022-11-30T14:46:52.526Z,24.23
2022-11-30T14:49:22.051Z,22.10
2022-11-30T14:51:52.903Z,24.00
2022-11-30T14:54:53.774Z,24.13
2022-11-30T14:57:32.998Z,23.73
2022-11-30T15:00:01.227Z,23.07
2022-11-30T15:02:35.659Z,22.77
2022-11-30T15:05:07.855Z,22.07
2022-11-30T15:07:37.583Z,22.00
2022-11-30T15:10:09.123Z,23.83
2022-11-30T15:12:40.436Z,22.33
2022-11-30T15:15:15.909Z,23.70
2022-11-30T15:17:53.093Z,22.60
2022-11-30T15:20:32.207Z,23.73
2022-11-30T15:23:01.134Z,23.10
2022-11-30T15:25:39.767Z,23.33
2022-11-30T15:28:11.369Z,22.93
2022-11-30T15:30:43.907Z,23.53
2022-11-30T15:33:19.300Z,22.13
2022-11-30T15:36:15.873Z,23.27
2022-11-30T15:38:39.635Z,23.37
2022-11-30T15:41:18.824Z,22.53
2022-11-30T15:43:51.480Z,22.90
2022-11-30T15:46:46.503Z,24.20
2022-11-30T15:49:18.009Z,23.07
2022-11-30T15:51:49.296Z,23.87
2022-11-30T15:54:18.910Z,23.07
2022-11-30T15:56:58.183Z,22.63
2022-11-30T15:59:29.430Z,24.13
2022-11-30T16:02:08.552Z,23.80
2022-11-30T16:05:09.593Z,23.67
2022-11-30T16:07:50.037Z,24.53
2022-11-30T16:10:21.426Z,24.87
2022-11-30T16:12:50.916Z,22.83
2022-11-30T16:15:23.368Z,24.83
2022-11-30T16:17:52.115Z,24.63
2022-11-30T16:20:20.865Z,23.77
2022-11-30T16:22:50.084Z,21.97
2022-11-30T16:25:20.182Z,23.67
2022-11-30T16:27:48.614Z,23.30
2022-11-30T16:30:19.154Z,23.50
2022-11-30T16:32:49.081Z,21.83
2022-11-30T16:35:21.974Z,23.37
2022-11-30T16:37:50.039Z,22.57
2022-11-30T16:40:18.568Z,21.90
2022-11-30T16:42:46.477Z,24.73
2022-11-30T16:45:21.119Z,23.60
2022-11-30T16:47:51.002Z,23.17
2022-11-30T16:50:20.004Z,22.60
2022-11-30T16:52:47.995Z,22.10
2022-11-30T16:55:18.654Z,21.53
2022-11-30T16:57:46.879Z,21.73
2022-11-30T17:00:17.404Z,21.53
2022-11-30T17:02:49.577Z,20.67
2022-11-30T17:05:19.082Z,21.30
2022-11-30T17:07:47.021Z,23.17
2022-11-30T17:10:15.031Z,21.80
2022-11-30T17:12:42.962Z,21.43
2022-11-30T17:15:16.526Z,22.23
2022-11-30T17:17:44.730Z,20.87
2022-11-30T17:20:14.342Z,19.87
2022-11-30T17:22:44.590Z,20.47
2022-11-30T17:25:15.978Z,20.20
2022-11-30T17:27:44.377Z,19.77
2022-11-30T17:30:14.148Z,19.83
2022-11-30T17:32:42.171Z,19.77
2022-11-30T17:35:10.764Z,18.53
2022-11-30T17:37:38.769Z,18.57
2022-11-30T17:40:11.659Z,18.40
2022-11-30T17:42:40.220Z,19.23
2022-11-30T17:45:09.186Z,18.53
2022-11-30T17:47:37.549Z,18.70
2022-11-30T17:50:07.700Z,17.90
2022-11-30T17:52:35.605Z,18.93
2022-11-30T17:55:03.645Z,17.83
2022-11-30T17:57:32.923Z,19.47
2022-11-30T18:00:00.848Z,17.70
2022-11-30T18:02:28.773Z,17.20
2022-11-30T18:04:56.734Z,18.17
2022-11-30T18:07:24.818Z,18.20
2022-11-30T18:09:52.722Z,17.23
2022-11-30T18:12:20.571Z,18.97
2022-11-30T18:14:50.983Z,18.87
2022-11-30T18:17:19.049Z,17.00
2022-11-30T18:19:48.069Z,17.83
2022-11-30T18:22:16.052Z,17.60
2022-11-30T18:24:43.937Z,16.87
2022-11-30T18:27:12.256Z,18.00
2022-11-30T18:29:40.226Z,17.03
2022-11-30T18:32:10.353Z,16.43
2022-11-30T18:34:38.352Z,17.53
2022-11-30T18:37:06.218Z,18.03
2022-11-30T18:39:34.147Z,17.90
2022-11-30T18:42:01.991Z,17.87
2022-11-30T18:44:29.968Z,16.87
2022-11-30T18:46:57.869Z,16.17
2022-11-30T18:49:27.077Z,16.67
2022-11-30T18:51:55.660Z,16.23
2022-11-30T18:54:25.133Z,17.40
2022-11-30T18:56:53.257Z,15.50
2022-11-30T18:59:21.094Z,16.83
2022-11-30T19:01:50.876Z,16.03
2022-11-30T19:04:18.963Z,16.77
2022-11-30T19:06:48.173Z,15.97
2022-11-30T19:09:18.895Z,17.13
2022-11-30T19:11:47.270Z,16.00
2022-11-30T19:14:16.717Z,16.50
2022-11-30T19:16:46.315Z,15.40
2022-11-30T19:19:15.256Z,14.33
2022-11-30T19:21:48.077Z,15.43
2022-11-30T19:24:16.799Z,14.87
2022-11-30T19:26:44.697Z,13.80
2022-11-30T19:29:13.071Z,15.07
2022-11-30T19:31:40.944Z,15.23
2022-11-30T19:34:12.923Z,13.23
2022-11-30T19:36:41.923Z,14.20
2022-11-30T19:39:12.065Z,13.17
2022-11-30T19:41:39.972Z,13.50
2022-11-30T19:44:07.860Z,13.87
2022-11-30T19:46:35.780Z,12.03
2022-11-30T19:49:04.214Z,12.70
2022-11-30T19:51:32.539Z,12.53
2022-11-30T19:54:00.464Z,12.90
2022-11-30T19:56:31.192Z,13.10
2022-11-30T19:59:05.197Z,11.70
2022-11-30T20:01:35.027Z,12.93
2022-11-30T20:04:03.433Z,12.27
2022-11-30T20:06:33.068Z,12.97
2022-11-30T20:09:01.497Z,13.80
2022-11-30T20:11:30.708Z,13.47
2022-11-30T20:14:00.083Z,13.37
2022-11-30T20:16:28.912Z,12.97
2022-11-30T20:19:00.589Z,12.10
2022-11-30T20:21:30.152Z,12.03
2022-11-30T20:24:00.600Z,12.30
2022-11-30T20:26:33.071Z,12.93
2022-11-30T20:29:02.730Z,12.33
2022-11-30T20:31:32.817Z,11.40
2022-11-30T20:34:00.812Z,11.87
2022-11-30T20:36:29.154Z,11.10
2022-11-30T20:38:58.658Z,10.73
2022-11-30T20:41:27.342Z,11.67
2022-11-30T20:43:56.764Z,12.40
2022-11-30T20:46:27.288Z,12.07
2022-11-30T20:48:56.152Z,11.63
2022-11-30T20:51:31.292Z,12.87
2022-11-30T20:54:00.701Z,10.67
2022-11-30T20:56:28.819Z,10.87
2022-11-30T20:59:01.047Z,10.93
2022-11-30T21:01:28.943Z,11.10
2022-11-30T21:03:56.865Z,11.30
2022-11-30T21:06:24.740Z,11.53
2022-11-30T21:08:52.619Z,12.07
2022-11-30T21:11:22.058Z,12.20
2022-11-30T21:13:51.590Z,12.00
2022-11-30T21:16:27.648Z,11.00
2022-11-30T21:18:58.416Z,11.20
2022-11-30T21:21:28.010Z,11.30
2022-11-30T21:23:55.995Z,11.17
2022-11-30T21:26:25.443Z,11.17
2022-11-30T21:28:56.722Z,10.50
2022-11-30T21:31:26.057Z,11.23
2022-11-30T21:33:54.162Z,11.23
2022-11-30T21:36:23.080Z,11.37
2022-11-30T21:38:58.166Z,11.63
2022-11-30T21:41:30.770Z,11.33
2022-11-30T21:43:58.898Z,11.50
2022-11-30T21:46:28.242Z,11.33
2022-11-30T21:48:58.214Z,10.67
2022-11-30T21:51:28.519Z,10.03
2022-11-30T21:54:00.213Z,10.70
2022-11-30T21:56:30.300Z,10.67
2022-11-30T21:59:00.689Z,10.37
2022-11-30T22:01:32.043Z,10.17
2022-11-30T22:04:02.004Z,10.43
2022-11-30T22:06:31.889Z,10.03
2022-11-30T22:09:03.175Z,10.10
2022-11-30T22:11:32.135Z,9.33
2022-11-30T22:14:00.109Z,10.27
2022-11-30T22:16:35.523Z,10.43
2022-11-30T22:19:04.965Z,9.20
2022-11-30T22:21:33.208Z,9.77
2022-11-30T22:24:02.299Z,9.67
2022-11-30T22:26:31.409Z,10.37
2022-11-30T22:29:01.388Z,10.47
2022-11-30T22:31:33.404Z,10.23
2022-11-30T22:34:01.591Z,10.20
2022-11-30T22:36:31.087Z,10.37
2022-11-30T22:39:00.611Z,10.23
2022-11-30T22:41:29.404Z,9.27
2022-11-30T22:43:58.863Z,9.67
2022-11-30T22:46:28.667Z,10.60
2022-11-30T22:49:00.570Z,9.63
2022-11-30T22:51:30.566Z,9.77
2022-11-30T22:54:00.026Z,9.10
2022-11-30T22:56:29.868Z,9.00
2022-11-30T22:59:00.626Z,8.07
2022-11-30T23:01:30.635Z,7.83
2022-11-30T23:04:03.625Z,7.67
2022-11-30T23:06:32.182Z,8.27
2022-11-30T23:09:00.722Z,7.97
2022-11-30T23:11:30.414Z,8.13
2022-11-30T23:13:58.765Z,8.47
2022-11-30T23:16:27.122Z,8.03
2022-11-30T23:18:57.329Z,8.33
2022-11-30T23:21:30.128Z,6.77
2022-11-30T23:23:59.717Z,8.27
2022-11-30T23:26:29.725Z,8.03
2022-11-30T23:29:00.833Z,8.50
2022-11-30T23:31:34.063Z,8.73
2022-11-30T23:34:06.596Z,9.20
2022-11-30T23:36:36.748Z,9.47
2022-11-30T23:39:07.475Z,10.00
2022-11-30T23:41:36.369Z,9.47
2022-11-30T23:44:04.851Z,8.70
2022-11-30T23:46:32.803Z,9.77
2022-11-30T23:49:01.066Z,8.33
2022-11-30T23:51:29.008Z,9.07
2022-11-30T23:53:58.183Z,9.27
2022-11-30T23:56:26.202Z,9.67
2022-11-30T23:58:54.142Z,9.13
